Latest Weather Observations for Roxby Downs

IDS60801

Issued at 9:01 pm CDT Monday 16 January 2017 (issued every 30 minutes, with the page automatically refreshed every 10 minutes)

About weather observations | Map of weather stations | Latest weather observations for SA | Other Formats
Station Details ID: 016096 Name: OLYMPIC DAM AERODROME Lat: -30.48 Lon: 136.88 Height: 98.5 m
Data from the previous 72 hours. | See also: Recent months at Roxby Downs
Date/Time
CDT
Temp
°C
App
Temp
°C
Dew
Point
°C
Rel
Hum
%
Delta-T
°C
Wind Press
QNH
hPa
Press
MSL
hPa
Rain since
9am
mm
Dir  Spd
km/h
Gust
km/h
Spd
kts
Gust
kts
16/09:00pm 30.9 29.1 1.3 15 14.6 CALM 0 0 0 0 1007.7 1007.0 0.0
16/08:30pm 34.0 32.8 4.6 16 15.6 CALM 0 0 0 0 1007.7 1007.0 0.0
16/08:00pm 37.2 34.7 -4.3 7 19.5 CALM 0 6 0 3 1007.5 1006.8 0.0
16/07:30pm 38.2 34.0 -3.6 7 20.0 ESE 9 13 5 7 1007.4 1006.7 0.0
16/07:00pm 38.7 35.5 -3.2 7 20.2 E 4 9 2 5 1007.3 1006.6 0.0
16/06:30pm 38.7 35.2 -3.2 7 20.3 SE 6 9 3 5 1007.3 1006.6 0.0
16/06:00pm 39.1 34.6 -2.9 7 20.5 ENE 11 17 6 9 1007.3 1006.6 0.0
16/05:30pm 39.1 33.9 -2.9 7 20.5 ENE 15 24 8 13 1007.5 1006.8 0.0
16/05:00pm 39.2 34.0 -2.9 7 20.5 E 15 24 8 13 1007.7 1007.0 0.0
16/04:30pm 38.5 34.4 -3.4 7 20.2 SE 9 15 5 8 1008.1 1007.4 0.0
16/04:00pm 38.1 34.3 -3.7 7 19.9 NE 7 13 4 7 1008.3 1007.6 0.0
16/03:30pm 38.1 34.3 -3.7 7 20.0 NNW 7 15 4 8 1008.7 1008.0 0.0
16/03:00pm 37.3 31.9 -4.2 7 19.6 N 15 22 8 12 1009.0 1008.3 0.0
16/02:30pm 37.2 33.7 -2.5 8 19.2 SW 6 13 3 7 1009.4 1008.7 0.0
16/02:00pm 36.4 32.3 -3.1 8 18.8 NNW 9 17 5 9 1009.8 1009.1 0.0
16/01:30pm 35.7 32.1 -2.0 9 18.2 NE 7 13 4 7 1010.3 1009.7 0.0
16/01:00pm 35.5 31.1 0.6 11 17.5 NE 13 19 7 10 1010.6 1010.0 0.0
16/12:30pm 34.9 31.0 1.3 12 17.0 NNE 11 17 6 9 1010.9 1010.3 0.0
16/12:00pm 34.7 30.2 2.3 13 16.7 NE 15 22 8 12 1011.2 1010.6 0.0
16/11:30am 33.4 29.5 3.3 15 15.6 ENE 13 24 7 13 1011.3 1010.7 0.0
16/11:00am 32.9 28.8 4.6 17 14.9 ENE 15 20 8 11 1011.7 1011.1 0.0
16/10:30am 32.3 27.6 5.0 18 14.5 ENE 19 28 10 15 1012.0 1011.4 0.0
16/10:00am 31.1 26.1 4.8 19 13.8 NE 20 28 11 15 1012.3 1011.7 0.0
16/09:30am 30.1 25.5 5.4 21 13.0 ENE 19 24 10 13 1012.4 1011.8 0.0
16/09:00am 29.1 26.0 7.1 25 11.9 ENE 13 20 7 11 1012.3 1011.7 0.0
16/08:30am 25.3 25.2 9.6 37 8.7 CALM 0 0 0 0 1012.4 1011.8 0.0
16/08:00am 21.9 22.1 10.4 48 6.3 CALM 0 0 0 0 1012.4 1011.8 0.0
16/07:30am 18.3 18.5 10.4 60 4.3 CALM 0 0 0 0 1012.3 1011.7 0.0
16/07:00am 14.9 14.7 9.1 68 3.0 CALM 0 0 0 0 1012.1 1011.5 0.0
16/06:30am 15.3 15.2 9.4 68 3.1 CALM 0 0 0 0 1011.8 1011.2 0.0
16/06:00am 15.3 15.3 9.7 69 2.9 CALM 0 0 0 0 1011.8 1011.2 0.0
16/05:30am 15.6 15.3 8.8 64 3.5 CALM 0 0 0 0 1011.7 1011.1 0.0
16/05:00am 16.3 14.8 8.5 60 4.0 ESE 6 7 3 4 1011.4 1010.8 0.0
16/04:30am 16.6 14.8 9.3 62 3.8 E 9 11 5 6 1011.2 1010.6 0.0
16/04:00am 17.4 15.7 8.5 56 4.6 E 7 9 4 5 1011.2 1010.6 0.0
16/03:30am 18.0 17.6 8.3 53 5.0 CALM 0 0 0 0 1011.3 1010.7 0.0
16/03:00am 20.0 18.9 8.4 47 6.1 SE 4 6 2 3 1011.2 1010.6 0.0
16/02:30am 22.9 21.2 8.2 39 7.8 SE 7 11 4 6 1011.1 1010.5 0.0
16/02:00am 23.7 20.8 8.2 37 8.3 SE 13 15 7 8 1011.1 1010.5 0.0
16/01:30am 23.1 20.2 8.0 38 8.0 SE 13 17 7 9 1011.3 1010.7 0.0
16/01:00am 22.9 19.9 7.8 38 7.9 SE 13 15 7 8 1011.3 1010.7 0.0
16/12:30am 23.4 20.4 7.9 37 8.2 SE 13 15 7 8 1011.6 1011.0 0.0
16/12:00am 23.2 20.7 8.1 38 8.0 SE 11 11 6 6 1011.7 1011.1 0.0
 
Date/Time
CDT
Temp
°C
App
Temp
°C
Dew
Point
°C
Rel
Hum
%
Delta-T
°C
Wind Press
QNH
hPa
Press
MSL
hPa
Rain since
9am
mm
Dir  Spd
km/h
Gust
km/h
Spd
kts
Gust
kts
15/11:30pm 23.6 21.6 8.5 38 8.1 SSE 9 11 5 6 1011.7 1011.1 0.0
15/11:00pm 23.8 21.7 8.2 37 8.3 SSE 9 9 5 5 1011.7 1011.1 0.0
15/10:30pm 24.9 22.8 8.4 35 8.9 S 9 11 5 6 1011.7 1011.1 0.0
15/10:00pm 26.3 24.2 8.3 32 9.7 S 9 11 5 6 1011.6 1011.0 0.0
15/09:30pm 27.6 25.6 8.5 30 10.5 SSE 9 13 5 7 1011.5 1010.9 0.0
15/09:00pm 29.1 26.1 7.7 26 11.7 SSE 13 20 7 11 1011.4 1010.8 0.0
15/08:30pm 30.3 26.3 8.1 25 12.2 SSE 19 26 10 14 1011.4 1010.8 0.0
15/08:00pm 31.3 26.6 7.7 23 13.0 SSE 22 32 12 17 1011.4 1010.8 0.0
15/07:30pm 32.5 28.1 7.4 21 13.8 SSE 20 30 11 16 1011.3 1010.7 0.0
15/07:00pm 33.2 28.9 7.2 20 14.3 SSE 19 26 10 14 1011.5 1010.9 0.0
15/06:30pm 33.6 29.1 6.0 18 15.0 SSE 19 28 10 15 1011.6 1011.0 0.0
15/06:00pm 34.4 30.0 6.7 18 15.2 SSE 19 30 10 16 1011.7 1011.1 0.0
15/05:30pm 33.6 29.1 6.0 18 15.0 SE 19 28 10 15 1011.9 1011.3 0.0
15/05:00pm 34.0 29.9 6.3 18 15.1 SE 17 30 9 16 1012.2 1011.6 0.0
15/04:30pm 33.6 29.5 6.0 18 15.0 SSE 17 24 9 13 1012.6 1012.0 0.0
15/04:00pm 33.6 30.4 6.8 19 14.7 SSE 13 24 7 13 1012.8 1012.2 0.0
15/03:30pm 33.1 29.8 6.4 19 14.5 SE 13 22 7 12 1013.3 1012.7 0.0
15/03:00pm 32.7 28.7 6.8 20 14.1 SSE 17 24 9 13 1013.6 1013.0 0.0
15/02:30pm 31.7 28.7 6.0 20 13.8 E 11 26 6 14 1014.2 1013.6 0.0
15/02:00pm 32.0 29.4 7.6 22 13.5 SE 11 20 6 11 1014.5 1013.9 0.0
15/01:30pm 31.4 29.5 9.0 25 12.6 SE 9 26 5 14 1015.0 1014.4 0.0
15/01:00pm 30.1 28.2 9.1 27 11.8 SE 9 20 5 11 1015.5 1014.9 0.0
15/12:30pm 29.0 26.2 8.7 28 11.2 E 13 30 7 16 1015.8 1015.2 0.0
15/12:00pm 28.2 25.5 9.0 30 10.6 SE 13 20 7 11 1016.2 1015.5 0.0
15/11:30am 27.8 24.8 9.1 31 10.3 E 15 22 8 12 1016.3 1015.6 0.0
15/11:00am 27.1 24.3 9.9 34 9.6 E 15 24 8 13 1016.4 1015.7 0.0
15/10:30am 26.2 23.0 10.0 36 9.0 ESE 17 26 9 14 1016.7 1016.0 0.0
15/10:00am 25.0 22.0 10.8 41 8.0 ESE 17 28 9 15 1016.7 1016.0 0.0
15/09:30am 23.8 20.6 11.2 45 7.1 SE 19 24 10 13 1016.9 1016.2 0.0
15/09:00am 22.3 19.5 11.4 50 6.1 SE 17 22 9 12 1016.9 1016.2 0.0
15/08:30am 20.7 17.7 12.1 58 4.8 SE 19 26 10 14 1016.7 1016.0 0.0
15/08:00am 19.3 16.2 12.1 63 4.0 SSE 20 26 11 14 1016.6 1015.9 0.0
15/07:30am 18.2 15.7 12.4 69 3.2 SSE 17 22 9 12 1016.2 1015.5 0.0
15/07:00am 17.3 14.9 12.6 74 2.6 SSE 17 22 9 12 1015.7 1015.1 0.0
15/06:30am 17.2 14.8 12.7 75 2.5 SSE 17 20 9 11 1015.3 1014.7 0.0
15/06:00am 17.5 15.1 12.8 74 2.6 SSE 17 20 9 11 1015.1 1014.5 0.0
15/05:30am 17.8 15.5 12.9 73 2.8 SSE 17 20 9 11 1014.8 1014.2 0.0
15/05:00am 18.1 15.4 13.0 72 2.9 SSE 19 26 10 14 1014.4 1013.8 0.0
15/04:30am 18.3 16.0 13.0 71 3.0 SSE 17 22 9 12 1014.4 1013.8 0.0
15/04:00am 18.7 16.0 12.9 69 3.3 SSE 19 24 10 13 1014.3 1013.7 0.0
15/03:30am 18.9 16.6 12.9 68 3.4 SSE 17 26 9 14 1014.3 1013.7 0.0
15/03:00am 19.2 16.5 12.9 67 3.6 SSE 19 26 10 14 1014.5 1013.9 0.0
15/02:30am 19.4 16.1 12.9 66 3.7 SSE 22 30 12 16 1014.7 1014.1 0.0
15/02:00am 19.7 16.0 12.7 64 4.0 SSE 24 35 13 19 1014.8 1014.2 0.0
15/01:30am 20.2 16.5 12.7 62 4.2 SSE 24 32 13 17 1014.9 1014.3 0.0
15/01:00am 20.8 17.0 12.5 59 4.7 SSE 24 32 13 17 1014.8 1014.2 0.0
15/12:30am 21.4 16.3 12.0 55 5.3 SSE 30 43 16 23 1014.8 1014.2 0.0
15/12:00am 22.0 17.2 11.7 52 5.8 SSE 28 39 15 21 1014.5 1013.9 0.0
 
Date/Time
CDT
Temp
°C
App
Temp
°C
Dew
Point
°C
Rel
Hum
%
Delta-T
°C
Wind Press
QNH
hPa
Press
MSL
hPa
Rain since
9am
mm
Dir  Spd
km/h
Gust
km/h
Spd
kts
Gust
kts
14/11:30pm 22.7 16.9 10.8 47 6.6 SSE 32 44 17 24 1014.4 1013.8 0.0
14/11:00pm 23.5 18.2 9.9 42 7.5 SSE 28 37 15 20 1014.2 1013.6 0.0
14/10:30pm 24.0 19.2 10.3 42 7.6 S 26 39 14 21 1013.8 1013.2 0.0
14/10:00pm 24.5 19.9 11.1 43 7.5 S 26 35 14 19 1013.7 1013.1 0.0
14/09:30pm 25.1 21.0 11.6 42 7.7 SSE 24 35 13 19 1013.7 1013.1 0.0
14/09:00pm 25.6 21.2 11.7 42 7.9 SSE 26 35 14 19 1013.5 1012.9 0.0
14/08:30pm 26.3 21.5 11.6 40 8.4 SSE 28 37 15 20 1013.3 1012.7 0.0
14/08:00pm 27.3 21.5 10.9 36 9.3 SSE 32 39 17 21 1013.0 1012.4 0.0
14/07:30pm 28.2 22.8 10.9 34 9.9 SSE 30 35 16 19 1012.9 1012.3 0.0
14/07:00pm 28.7 23.3 10.8 33 10.2 S 30 37 16 20 1012.8 1012.2 0.0
14/06:30pm 29.0 23.5 10.6 32 10.5 S 30 43 16 23 1012.7 1012.1 0.0
14/06:00pm 28.9 23.5 11.0 33 10.3 S 30 44 16 24 1012.6 1012.0 0.0
14/05:30pm 29.6 24.7 11.2 32 10.6 S 28 39 15 21 1012.8 1012.2 0.0
14/05:24pm 29.1 24.0 10.7 32 10.5 S 28 46 15 25 1012.8 1012.2 0.0
14/05:00pm 29.2 24.0 11.7 34 10.2 S 30 41 16 22 1012.9 1012.3 0.0
14/04:30pm 29.4 24.3 11.9 34 10.2 S 30 41 16 22 1013.1 1012.5 0.0
14/04:00pm 29.2 24.4 11.7 34 10.2 S 28 43 15 23 1013.4 1012.8 0.0
14/03:30pm 29.1 24.2 11.2 33 10.3 S 28 39 15 21 1013.8 1013.2 0.0
14/03:00pm 27.9 23.1 11.5 36 9.4 S 28 41 15 22 1014.1 1013.5 0.0
14/02:30pm 27.6 23.3 12.0 38 9.0 SSE 26 37 14 20 1014.4 1013.8 0.0
14/02:12pm 26.5 21.2 11.4 39 8.6 S 30 48 16 26 1014.7 1014.1 0.0
14/02:00pm 27.0 22.3 11.9 39 8.7 S 28 39 15 21 1014.6 1014.0 0.0
14/01:30pm 26.5 21.4 11.8 40 8.4 S 30 43 16 23 1014.9 1014.3 0.0
14/01:00pm 25.3 20.3 11.1 41 8.0 S 28 37 15 20 1015.1 1014.5 0.0
14/12:30pm 24.4 19.4 11.0 43 7.5 S 28 37 15 20 1015.2 1014.6 0.0
14/12:00pm 23.9 19.1 11.6 46 7.0 S 28 35 15 19 1015.3 1014.7 0.0
14/11:30am 22.6 17.7 11.4 49 6.3 S 28 35 15 19 1015.3 1014.7 0.0
14/11:00am 21.8 17.2 11.2 51 5.9 SSE 26 39 14 21 1015.7 1015.1 0.0
14/10:30am 21.0 16.8 11.1 53 5.5 SSE 24 35 13 19 1015.8 1015.2 0.0
14/10:00am 19.4 14.5 11.2 59 4.5 S 28 37 15 20 1015.6 1015.0 0.0
14/09:30am 19.4 14.8 10.9 58 4.6 S 26 37 14 20 1015.6 1015.0 0.0
14/09:00am 18.4 13.3 10.5 60 4.3 S 28 41 15 22 1015.3 1014.7 2.0
14/08:30am 17.6 12.1 10.5 63 3.8 S 30 41 16 22 1014.8 1014.2 2.0
14/08:00am 16.8 11.6 10.4 66 3.4 S 28 41 15 22 1014.2 1013.6 2.0
14/07:30am 16.1 11.4 10.6 70 2.9 S 26 35 14 19 1013.8 1013.2 2.0
14/07:00am 15.7 11.1 10.9 73 2.6 S 26 35 14 19 1013.3 1012.7 2.0
14/06:30am 15.7 12.3 11.1 74 2.5 S 20 28 11 15 1013.1 1012.5 2.0
14/06:00am 16.1 11.6 11.3 73 2.6 S 26 33 14 18 1012.3 1011.7 2.0
14/05:30am 16.5 10.6 11.0 70 3.0 S 33 43 18 23 1012.0 1011.4 2.0
14/05:00am 17.0 11.2 11.5 70 3.0 S 33 44 18 24 1011.7 1011.1 2.0
14/04:30am 17.4 12.0 12.1 71 2.9 S 32 48 17 26 1011.4 1010.8 2.0
14/04:00am 17.8 12.8 12.3 70 3.1 S 30 48 16 26 1011.1 1010.5 2.0
14/03:30am 18.3 13.4 12.5 69 3.2 S 30 44 16 24 1011.0 1010.4 2.0
14/03:00am 18.8 16.1 15.5 81 2.0 S 24 35 13 19 1010.8 1010.2 2.0
14/02:30am 18.6 15.9 15.7 83 1.7 S 24 32 13 17 1010.4 1009.8 2.0
14/02:00am 18.8 15.8 14.7 77 2.4 SSW 24 32 13 17 1010.5 1009.9 2.0
14/01:30am 19.3 16.8 14.1 72 3.0 SSW 20 30 11 16 1010.8 1010.2 2.0
14/01:00am 20.1 16.4 14.0 68 3.5 SSW 26 35 14 19 1011.0 1010.4 2.0
14/12:30am 20.5 16.7 13.7 65 3.9 SSW 26 37 14 20 1010.8 1010.2 2.0
14/12:00am 21.1 17.0 13.8 63 4.2 SSW 28 41 15 22 1010.6 1010.0 2.0
 
Date/Time
CDT
Temp
°C
App
Temp
°C
Dew
Point
°C
Rel
Hum
%
Delta-T
°C
Wind Press
QNH
hPa
Press
MSL
hPa
Rain since
9am
mm
Dir  Spd
km/h
Gust
km/h
Spd
kts
Gust
kts
13/11:30pm 21.8 17.8 14.2 62 4.5 SSW 28 37 15 20 1010.4 1009.8 2.0
13/11:00pm 22.1 20.0 15.2 65 4.1 SSW 20 26 11 14 1010.3 1009.7 2.0
13/10:30pm 22.3 21.0 16.8 71 3.4 SSW 19 24 10 13 1010.3 1009.7 2.0
13/10:00pm 22.7 21.6 17.4 72 3.3 S 19 26 10 14 1010.0 1009.3 2.0
13/09:30pm 23.0 21.6 17.9 73 3.2 S 22 30 12 16 1009.8 1009.1 2.0

Other Formats:

Comma delimited format used in spreadsheet applications
http://www.bom.gov.au/fwo/IDS60801/IDS60801.95658.axf

JavaScript Object Notation format (JSON) in row-major order
http://www.bom.gov.au/fwo/IDS60801/IDS60801.95658.json